Terminal Aerodrome Forecast
Issued by NWS

Home | Current Version | Previous Version | Graphics & Text | Print | Product List | Glossary On
Versions: 1 2 3 4 5 6 7 8 9 10 11 12 13 14 15 16 17 18 19 20 21 22 23 24 25 26 27 28
842
FTUS43 KTOP 301540 AAC
TAFFOE
TAF AMD
KFOE 301540Z 3016/0112 24011KT P6SM BKN012
     FM302100 27009KT P6SM SCT025 BKN040
     FM010600 27010KT P6SM SCT004 BKN012=

USA.gov is the U.S. government's official web portal to all federal, state and local government web resources and services.